Terminal Aerodrome Forecast
Issued by NWS Twin Cities, MN

Current Version | Previous Version | Text Only | Print | Product List | Glossary On
Versions: 1 2 3 4 5 6 7 8 9 10 11 12 13 14 15 16 17
000
FTUS43 KMPX 231125
TAFSTC
TAF
KSTC 231125Z 2312/2412 29003KT P6SM SKC
     FM231500 20004KT P6SM SCT250
     FM231800 19007KT P6SM FEW100 BKN250
     FM240600 20008KT P6SM BKN150=

USA.gov is the U.S. government's official web portal to all federal, state and local government web resources and services.